Nearby METAR Reports

 

KAVP - Avoca/Wilkes B., Pennsylvania, USA
Distance from station: SW 13mi, 22km
Updated: Wed, 16-Jan-2019 18:54 EST
Overcast
Overcast
 Wind from NNW
Wind: NNW 16 mph , 26 km/h, Gust: 21 mph , 33 km/h
Temperature: 34°F , 1°C
Wind Chill: 24°F , -4°C
Dew Point: 23°F , -5°C
Humidity: 65%
Barometer: 30.11 inHg , 1019.6 hPa
Clouds: Overcast
Visibility: 10 miles , 16 km
Cloud details: Mostly cloudy 3300 ft
Mostly cloudy 4000 ft
Overcast 5000 ft
2019/01/16 23:54 KAVP 162354Z 33014G18KT 10SM UP BKN033 BKN040 OVC050 01/M05 A3011 RMK AO2 UPB52 SLP204 P0000 60000 T00111050 10017 20011 53026
KMPO - Mt. Pocono, Pennsylvania, USA
Distance from station: SSE 26mi, 43km
Updated: Wed, 16-Jan-2019 19:36 EST
Overcast
Overcast
 Wind from WNW
Wind: WNW 21 mph , 33 km/h, Gust: 32 mph , 52 km/h
Temperature: 28°F , -2°C
Wind Chill: 14°F , -10°C
Dew Point: 19°F , -7°C
Humidity: 69%
Barometer: 30.05 inHg , 1017.6 hPa
Clouds: Overcast
Visibility: 10 miles , 16 km
Cloud details: Mostly cloudy 2400 ft
Mostly cloudy 2900 ft
Overcast 4000 ft
2019/01/17 00:36 KMPO 170036Z AUTO 29018G28KT 10SM BKN024 BKN029 OVC040 M02/M07 A3005 RMK AO2 PK WND 30028/0034 T10171067
 
KMSV - Monticello, New York, USA
Distance from station: ENE 43mi, 69km
Updated: Wed, 16-Jan-2019 18:56 EST
Mostly cloudy
Mostly cloudy
 Wind from NW
Wind: NW 17 mph , 28 km/h, Gust: 24 mph , 39 km/h
Temperature: 28°F , -2°C
Wind Chill: 16°F , -9°C
Dew Point: 19°F , -7°C
Humidity: 69%
Barometer: 30.07 inHg , 1018.3 hPa
Clouds: Mostly cloudy
Visibility: 10 miles , 16 km
Cloud details: Partly cloudy 3000 ft
Partly cloudy 3800 ft
Mostly cloudy 4800 ft
2019/01/16 23:56 KMSV 162356Z AUTO 31015G21KT 10SM SCT030 SCT038 BKN048 M02/M07 A3007 RMK AO2 SLP201 60000 T10221072 10006 21022 53025 FZRANO
KFWN - Sussex, New Jersey, USA
Distance from station: ESE 52mi, 84km
Updated: Wed, 16-Jan-2019 18:53 EST
Mostly cloudy
Mostly cloudy
 Wind from varies
Wind: varies 7 mph , 11 km/h
Temperature: 37°F , 3°C
Wind Chill: 32°F , 0°C
Dew Point: 21°F , -6°C
Humidity: 52%
Barometer: 30.09 inHg , 1019 hPa
Clouds: Mostly cloudy
Visibility: 10 miles , 16 km
Cloud details: Mostly cloudy 6000 ft
2019/01/16 23:53 KFWN 162353Z AUTO VRB06KT 10SM BKN060 03/M06 A3009 RMK AO2 SLP194 T00281061 10033 20022 53023
 
K12N - Andover, New Jersey, USA
Distance from station: SE 54mi, 87km
Updated: Wed, 16-Jan-2019 18:54 EST

 Wind from calm
Wind: Calm
Temperature: 36°F , 2°C
Dew Point: 19°F , -7°C
Humidity: 52%
Barometer: 30.10 inHg , 1019.3 hPa
2019/01/16 23:54 K12N 162354Z AUTO 00000KT 02/M07 A3010 RMK AO1 SLP204 T00171067 10033 20017 53020
KBGM - Binghamton, New York, USA
Distance from station: NNW 55mi, 88km
Updated: Wed, 16-Jan-2019 18:53 EST
Partly cloudy
Partly cloudy
 Wind from NW
Wind: NW 10 mph , 17 km/h, Gust: 21 mph , 33 km/h
Temperature: 23°F , -5°C
Wind Chill: 13°F , -11°C
Dew Point: 12°F , -11°C
Humidity: 63%
Barometer: 30.09 inHg , 1019 hPa
Clouds: Partly cloudy
Visibility: 10 miles , 16 km
Cloud details: Partly cloudy 3900 ft
2019/01/16 23:53 KBGM 162353Z 31009G18KT 10SM SCT039 M05/M11 A3009 RMK AO2 SLP215 60000 T10501111 11006 21050 53035
 
KABE - Allentown, Pennsylvania, USA
Distance from station: S 58mi, 94km
Updated: Wed, 16-Jan-2019 18:51 EST
Mostly cloudy
Mostly cloudy
 Wind from W
Wind: W 8 mph , 13 km/h
Temperature: 36°F , 2°C
Wind Chill: 30°F , -1°C
Dew Point: 21°F , -6°C
Humidity: 56%
Barometer: 30.14 inHg , 1020.7 hPa
Clouds: Mostly cloudy
Visibility: 10 miles , 16 km
Cloud details: Mostly cloudy 5000 ft
2019/01/16 23:51 KABE 162351Z 26007KT 10SM BKN050 02/M06 A3014 RMK AO2 SLP208 T00221061 10039 20017 53018
KXLL - Allentown Queen, Pennsylvania, USA
Distance from station: S 64mi, 103km
Updated: Wed, 16-Jan-2019 19:35 EST
Partly cloudy
Partly cloudy
 Wind from WSW
Wind: WSW 7 mph , 11 km/h
Temperature: 34°F , 1°C
Wind Chill: 28°F , -2°C
Dew Point: 23°F , -5°C
Humidity: 65%
Barometer: 30.17 inHg , 1021.7 hPa
Clouds: Partly cloudy
Visibility: 10 miles , 16 km
Cloud details: Partly cloudy 5000 ft
2019/01/17 00:35 KXLL 170035Z AUTO 25006KT 10SM SCT050 01/M05 A3017 RMK AO2
 
KMGJ - Montgomery, New York, USA
Distance from station: E 67mi, 108km
Updated: Wed, 16-Jan-2019 18:54 EST
Overcast
Overcast
 Wind from NW
Wind: NW 13 mph , 20 km/h, Gust: 20 mph , 31 km/h
Temperature: 36°F , 2°C
Wind Chill: 27°F , -3°C
Dew Point: 21°F , -6°C
Humidity: 56%
Barometer: 30.08 inHg , 1018.6 hPa
Clouds: Overcast
Visibility: 10 miles , 16 km
Cloud details: Few Clouds 4700 ft
Overcast 6000 ft
2019/01/16 23:54 KMGJ 162354Z AUTO 31011G17KT 10SM FEW047 OVC060 02/M06 A3008 RMK AO2 SLP191 T00221061 10039 20022 53030
KIPT - Williamsport, Pennsylvania, USA
Distance from station: WSW 72mi, 116km
Updated: Wed, 16-Jan-2019 18:54 EST
Overcast
Overcast
 Wind from WNW
Wind: WNW 10 mph , 17 km/h, Gust: 22 mph , 35 km/h
Temperature: 34°F , 1°C
Wind Chill: 26°F , -3°C
Dew Point: 25°F , -4°C
Humidity: 70%
Barometer: 30.17 inHg , 1021.7 hPa
Clouds: Overcast
Visibility: 10 miles , 16 km
Cloud details: Few Clouds 3100 ft
Partly cloudy 4000 ft
Overcast 5000 ft
2019/01/16 23:54 KIPT 162354Z 30009G19KT 10SM FEW031 SCT040 OVC050 01/M04 A3017 RMK AO2 SNB21E46 SLP221 P0000 60000 T00111039 10028 20011 53025
 
KUKT - Quakertown Arp, Pennsylvania, USA
Distance from station: S 74mi, 119km
Updated: Wed, 16-Jan-2019 19:35 EST
Mostly cloudy
Mostly cloudy
 Wind from WSW
Wind: WSW 3 mph , 6 km/h
Temperature: 34°F , 1°C
Dew Point: 21°F , -6°C
Humidity: 60%
Barometer: 30.15 inHg , 1021 hPa
Clouds: Mostly cloudy
Visibility: 10 miles , 16 km
Cloud details: Mostly cloudy 5000 ft
2019/01/17 00:35 KUKT 170035Z AUTO 25003KT 10SM BKN050 01/M06 A3015 RMK A01
KSMQ - Somerville, New Jersey, USA
Distance from station: SE 76mi, 123km
Updated: Wed, 16-Jan-2019 18:53 EST
Overcast
Overcast
 Wind from varies
Wind: varies 3 mph , 6 km/h
Temperature: 37°F , 3°C
Dew Point: 21°F , -6°C
Humidity: 52%
Barometer: 30.12 inHg , 1020 hPa
Clouds: Overcast
Visibility: 10 miles , 16 km
Cloud details: Overcast 5500 ft
2019/01/16 23:53 KSMQ 162353Z AUTO VRB03KT 10SM OVC055 03/M06 A3012 RMK AO2 SLP202 T00281061 10039 20022 53021
 
KSWF - Newburgh/Stewart, New York, USA
Distance from station: E 77mi, 123km
Updated: Wed, 16-Jan-2019 18:45 EST
Mostly cloudy
Mostly cloudy
 Wind from WNW
Wind: WNW 16 mph , 26 km/h, Gust: 23 mph , 37 km/h
Temperature: 36°F , 2°C
Wind Chill: 26°F , -3°C
Dew Point: 23°F , -5°C
Humidity: 60%
Barometer: 30.08 inHg , 1018.6 hPa
Clouds: Mostly cloudy
Visibility: 10 miles , 16 km
Cloud details: Mostly cloudy 5500 ft
2019/01/16 23:45 KSWF 162345Z 30014G20KT 10SM BKN055 02/M05 A3008
KMMU - Morristown Muni, New Jersey, USA
Distance from station: SE 77mi, 124km
Updated: Wed, 16-Jan-2019 18:45 EST
Overcast
Overcast
 Wind from W
Wind: W 8 mph , 13 km/h
Temperature: 37°F , 3°C
Wind Chill: 31°F , -1°C
Dew Point: 23°F , -5°C
Humidity: 56%
Barometer: 30.12 inHg , 1020 hPa
Clouds: Overcast
Visibility: 10 miles , 16 km
Cloud details: Overcast 5000 ft
2019/01/16 23:45 KMMU 162345Z 27007KT 10SM OVC050 03/M05 A3012
 
KCDW - Caldwell, New Jersey, USA
Distance from station: ESE 79mi, 127km
Updated: Wed, 16-Jan-2019 18:53 EST
Mostly cloudy
Mostly cloudy
 Wind from W
Wind: W 6 mph , 9 km/h
Temperature: 37°F , 3°C
Wind Chill: 32°F , 0°C
Dew Point: 21°F , -6°C
Humidity: 52%
Barometer: 30.12 inHg , 1020 hPa
Clouds: Mostly cloudy
Visibility: 10 miles , 16 km
Cloud details: Mostly cloudy 5500 ft
2019/01/16 23:53 KCDW 162353Z 26005KT 10SM BKN055 03/M06 A3012 RMK AO2 SLP205 T00281061 10033 20017 53019
KRDG - Reading, Pennsylvania, USA
Distance from station: SSW 80mi, 130km
Updated: Wed, 16-Jan-2019 18:54 EST
Overcast
Overcast
 Wind from W
Wind: W 9 mph , 15 km/h
Temperature: 37°F , 3°C
Wind Chill: 30°F , -1°C
Dew Point: 25°F , -4°C
Humidity: 60%
Barometer: 30.17 inHg , 1021.7 hPa
Clouds: Overcast
Visibility: 10 miles , 16 km
Cloud details: Overcast 4900 ft
2019/01/16 23:54 KRDG 162354Z 26008KT 10SM OVC049 03/M04 A3017 RMK AO2 SLP223 T00281039 10039 20028 51020
 
KITH - Ithaca/Tompkins, New York, USA
Distance from station: NW 81mi, 131km
Updated: Wed, 16-Jan-2019 18:56 EST
Mostly cloudy
Mostly cloudy
 Wind from NW
Wind: NW 20 mph , 31 km/h, Gust: 24 mph , 39 km/h
Temperature: 21°F , -6°C
Wind Chill: 6°F , -14°C
Dew Point: 14°F , -10°C
Humidity: 74%
Barometer: 30.18 inHg , 1022 hPa
Clouds: Mostly cloudy
Visibility: 10 miles , 16 km
Cloud details: Mostly cloudy 2800 ft
2019/01/16 23:56 KITH 162356Z 32017G21KT 10SM BKN028 M06/M10 A3018 RMK AO2 SLP235 60000 T10561100 10006 21056 53040
KSEG - Selinsgrove, Pennsylvania, USA
Distance from station: SW 82mi, 132km
Updated: Wed, 16-Jan-2019 18:53 EST
Overcast
Overcast
 Wind from W
Wind: W 6 mph , 9 km/h
Temperature: 36°F , 2°C
Wind Chill: 31°F , -1°C
Dew Point: 25°F , -4°C
Humidity: 65%
Barometer: 30.19 inHg , 1022.4 hPa
Clouds: Overcast
Visibility: 10 miles , 16 km
Cloud details: Few Clouds 3900 ft
Overcast 5000 ft
2019/01/16 23:53 KSEG 162353Z AUTO 28005KT 10SM FEW039 OVC050 02/M04 A3019 RMK AO2 SLP226 T00171044 10022 20017 53019
 
KELM - Elmira, New York, USA
Distance from station: WNW 82mi, 133km
Updated: Wed, 16-Jan-2019 18:53 EST
Overcast
Overcast
 Wind from NW
Wind: NW 8 mph , 13 km/h
Temperature: 28°F , -2°C
Wind Chill: 20°F , -7°C
Dew Point: 16°F , -9°C
Humidity: 59%
Barometer: 30.18 inHg , 1022 hPa
Clouds: Overcast
Visibility: 10 miles , 16 km
Cloud details: Overcast 3700 ft
2019/01/16 23:53 KELM 162353Z 32007KT 10SM OVC037 M02/M09 A3018 RMK AO2 SLP230 60000 T10221089 10011 21028 51038
KDYL - Doylestown, Pennsylvania, USA
Distance from station: SSE 83mi, 134km
Updated: Wed, 16-Jan-2019 18:54 EST
Clear
Clear
 Wind from W
Wind: W 7 mph , 11 km/h
Temperature: 34°F , 1°C
Wind Chill: 28°F , -2°C
Dew Point: 19°F , -7°C
Humidity: 56%
Barometer: 30.14 inHg , 1020.7 hPa
Clouds: Clear
Visibility: 10 miles , 16 km
2019/01/16 23:54 KDYL 162354Z AUTO 27006KT 10SM CLR 01/M07 A3014 RMK AO2 SLP213 T00111067 10028 20011 51021